Time;durP1;ratioP1;P1;durP2;ratioP2;P2;SDS_P1;SDS_P2;PMS_P1;PMS_P2;Temp;Humidity;BMP_temperature;BMP_pressure;BME280_temperature;BME280_humidity;BME280_pressure;Samples;Min_cycle;Max_cycle;Signal;HPM_P1;HPM_P2
2022/10/29 00:02:04;;;;;;;;;;;;;;;20.94;64.99;101615.66;7281953;19;154313;-58
2022/10/29 00:04:37;;;;;;;;;;;;;;;20.95;65.49;101611.72;7290480;19;152099;-58
2022/10/29 00:07:09;;;;;;;;;;;;;;;20.95;65.67;101611.72;7276653;19;153768;-58
2022/10/29 00:09:39;;;;;;;;;;;;;;;20.95;65.68;101597.69;7282002;19;154988;-58
2022/10/29 00:12:09;;;;;;;;;;;;;;;20.97;65.29;101603.00;7280986;19;152726;-57
2022/10/29 00:14:41;;;;;;;;;;;;;;;20.96;65.49;101609.75;7277781;19;155010;-58
2022/10/29 00:17:10;;;;;;;;;;;;;;;20.97;65.53;101601.03;7281890;19;152631;-58
2022/10/29 00:19:52;;;;;;;;;;;;;;;20.98;65.78;101590.66;7282646;19;152262;-58
2022/10/29 00:22:20;;;;;;;;;;;;;;;20.97;65.65;101572.09;7280866;19;153120;-58
2022/10/29 00:24:48;;;;;;;;;;;;;;;20.98;65.94;101554.13;7279038;19;151925;-57
2022/10/29 00:27:15;;;;;;;;;;;;;;;20.97;65.98;101546.81;7285799;19;152636;-58
2022/10/29 00:29:48;;;;;;;;;;;;;;;20.98;66.15;101551.31;7279679;19;152632;-58
2022/10/29 00:32:15;;;;;;;;;;;;;;;20.98;66.19;101548.50;7282223;19;153779;-58
2022/10/29 00:35:02;;;;;;;;;;;;;;;20.99;65.85;101559.44;7279642;19;153518;-58
2022/10/29 00:37:31;;;;;;;;;;;;;;;20.99;66.10;101552.97;7279309;19;152323;-58
2022/10/29 00:40:02;;;;;;;;;;;;;;;20.99;66.40;101556.63;7282844;19;152710;-58
2022/10/29 00:42:31;;;;;;;;;;;;;;;21.00;66.44;101557.47;7275847;19;153201;-58
2022/10/29 00:44:59;;;;;;;;;;;;;;;20.99;66.77;101561.41;7279798;19;152411;-58
2022/10/29 00:47:29;;;;;;;;;;;;;;;21.01;66.46;101576.84;7281999;19;153384;-57
2022/10/29 00:50:02;;;;;;;;;;;;;;;21.00;66.81;101571.50;7287394;19;154695;-58
2022/10/29 00:52:31;;;;;;;;;;;;;;;21.01;66.86;101578.81;7281234;19;152791;-58
2022/10/29 00:55:02;;;;;;;;;;;;;;;21.00;66.93;101579.94;7280652;19;154131;-58
2022/10/29 00:57:34;;;;;;;;;;;;;;;20.99;67.25;101570.66;7276449;19;152300;-58
2022/10/29 01:00:02;;;;;;;;;;;;;;;21.00;67.22;101560.25;7278374;19;152659;-58
2022/10/29 01:02:30;;;;;;;;;;;;;;;21.01;67.17;101561.94;7278316;19;153557;-58
2022/10/29 01:04:59;;;;;;;;;;;;;;;21.01;66.94;101554.38;7278778;19;152416;-57
2022/10/29 01:07:27;;;;;;;;;;;;;;;21.02;67.31;101555.19;7281124;19;153264;-58
2022/10/29 01:09:54;;;;;;;;;;;;;;;21.02;67.57;101549.59;7280707;19;153467;-58
2022/10/29 01:12:30;;;;;;;;;;;;;;;21.02;67.56;101556.03;7286233;19;152011;-58
2022/10/29 01:15:16;;;;;;;;;;;;;;;21.03;67.95;101552.06;7279056;19;153158;-58
2022/10/29 01:17:43;;;;;;;;;;;;;;;21.07;68.00;101546.72;7280129;19;152382;-58
2022/10/29 01:20:20;;;;;;;;;;;;;;;20.90;62.94;101540.69;7278116;19;152892;-57
2022/10/29 01:22:57;;;;;;;;;;;;;;;20.85;63.50;101541.59;7277760;19;154187;-57
2022/10/29 01:25:26;;;;;;;;;;;;;;;20.89;64.56;101539.06;7279941;19;152811;-58
2022/10/29 01:28:03;;;;;;;;;;;;;;;20.93;65.32;101540.13;7276912;19;153541;-58
2022/10/29 01:30:39;;;;;;;;;;;;;;;20.94;65.56;101534.19;7276570;19;154436;-58
2022/10/29 01:33:17;;;;;;;;;;;;;;;20.92;65.56;101533.66;7288661;19;152099;-58
2022/10/29 01:35:53;;;;;;;;;;;;;;;20.93;65.84;101531.69;7277976;19;154243;-58
2022/10/29 01:38:30;;;;;;;;;;;;;;;20.94;66.06;101537.00;7280522;19;152057;-58
2022/10/29 01:41:10;;;;;;;;;;;;;;;20.92;66.34;101533.66;7281255;19;152776;-59
2022/10/29 01:43:45;;;;;;;;;;;;;;;20.95;66.24;101529.41;7277982;19;153885;-58
2022/10/29 01:46:16;;;;;;;;;;;;;;;20.96;66.33;101525.47;7274674;19;153052;-58
2022/10/29 01:48:46;;;;;;;;;;;;;;;20.94;66.00;101520.16;7280264;19;153368;-57
2022/10/29 01:51:22;;;;;;;;;;;;;;;20.97;66.12;101524.34;7276621;19;152655;-57
2022/10/29 01:53:50;;;;;;;;;;;;;;;20.96;66.27;101523.50;7278737;19;154627;-57
2022/10/29 01:56:18;;;;;;;;;;;;;;;20.97;66.09;101510.31;7290170;19;152920;-57
2022/10/29 01:58:47;;;;;;;;;;;;;;;20.96;66.39;101503.00;7282931;19;152482;-56
2022/10/29 02:01:24;;;;;;;;;;;;;;;20.96;66.13;101501.03;7285914;19;153073;-56
2022/10/29 02:04:03;;;;;;;;;;;;;;;20.96;66.46;101503.00;7285038;19;153132;-56
2022/10/29 02:06:36;;;;;;;;;;;;;;;20.95;66.80;101502.16;7281306;19;152970;-56
2022/10/29 02:09:11;;;;;;;;;;;;;;;20.95;66.62;101502.16;7287467;19;153015;-56
2022/10/29 02:11:41;;;;;;;;;;;;;;;20.96;66.85;101488.97;7283511;19;152303;-56
2022/10/29 02:14:14;;;;;;;;;;;;;;;20.96;66.77;101486.16;7284989;19;152572;-56
2022/10/29 02:16:41;;;;;;;;;;;;;;;20.97;66.65;101479.41;7284716;19;152918;-56
2022/10/29 02:19:09;;;;;;;;;;;;;;;20.97;66.97;101470.97;7290456;19;152754;-56
2022/10/29 02:21:36;;;;;;;;;;;;;;;20.97;67.25;101470.97;7283980;19;152222;-56
2022/10/29 02:24:03;;;;;;;;;;;;;;;21.00;67.08;101467.56;7283760;19;154610;-56
2022/10/29 02:26:30;;;;;;;;;;;;;;;20.99;67.43;101461.09;7282773;19;152186;-56
2022/10/29 02:28:58;;;;;;;;;;;;;;;20.98;67.29;101461.41;7284351;19;152079;-56
2022/10/29 02:31:25;;;;;;;;;;;;;;;20.97;67.31;101457.78;7283707;19;153242;-56
2022/10/29 02:33:53;;;;;;;;;;;;;;;20.98;67.34;101469.84;7282247;19;152473;-56
2022/10/29 02:36:27;;;;;;;;;;;;;;;20.97;66.96;101463.38;7282954;19;154412;-56
2022/10/29 02:38:58;;;;;;;;;;;;;;;20.96;67.40;101442.03;7282716;19;153615;-57
2022/10/29 02:41:30;;;;;;;;;;;;;;;20.96;67.18;101442.03;7289781;19;152752;-56
2022/10/29 02:46:50;;;;;;;;;;;;;;;20.95;67.23;101420.69;7280494;19;152177;-56
2022/10/29 02:49:28;;;;;;;;;;;;;;;20.94;67.41;101416.22;7282028;19;152317;-56
2022/10/29 02:52:01;;;;;;;;;;;;;;;20.92;67.29;101420.47;7281422;19;153510;-56
2022/10/29 02:54:28;;;;;;;;;;;;;;;20.96;67.42;101413.13;7284610;19;152322;-56
2022/10/29 02:56:56;;;;;;;;;;;;;;;20.94;67.56;101395.75;7281409;19;153499;-56
2022/10/29 02:59:23;;;;;;;;;;;;;;;20.92;67.03;101393.22;7281934;19;152947;-56
2022/10/29 03:01:49;;;;;;;;;;;;;;;20.91;67.11;101376.66;7283864;19;151996;-56
2022/10/29 03:04:16;;;;;;;;;;;;;;;20.94;67.02;101378.88;7289524;19;153104;-56
2022/10/29 03:06:43;;;;;;;;;;;;;;;20.93;67.48;101369.63;7280372;19;152533;-56
2022/10/29 03:09:13;;;;;;;;;;;;;;;20.94;67.13;101370.47;7283777;19;151836;-56
2022/10/29 03:11:41;;;;;;;;;;;;;;;20.93;67.54;101355.56;7279284;19;155268;-56
2022/10/29 03:14:09;;;;;;;;;;;;;;;20.93;67.75;101361.19;7283553;19;152294;-56
2022/10/29 03:16:36;;;;;;;;;;;;;;;20.94;67.17;101350.78;7283733;19;152668;-56
2022/10/29 03:19:03;;;;;;;;;;;;;;;20.91;67.46;101346.59;7283006;19;152952;-56
2022/10/29 03:21:30;;;;;;;;;;;;;;;20.92;68.11;101341.81;7282881;19;153330;-56
2022/10/29 03:23:57;;;;;;;;;;;;;;;20.90;67.95;101342.09;7283541;19;152136;-56
2022/10/29 03:26:24;;;;;;;;;;;;;;;20.91;68.11;101340.13;7287560;19;152920;-56
2022/10/29 03:28:51;;;;;;;;;;;;;;;20.92;67.72;101348.28;7280492;19;152463;-56
2022/10/29 03:31:18;;;;;;;;;;;;;;;20.94;67.76;101347.97;7280900;19;154696;-56
2022/10/29 03:33:45;;;;;;;;;;;;;;;20.92;68.33;101353.88;7284590;19;152404;-56
2022/10/29 03:36:12;;;;;;;;;;;;;;;20.91;68.39;101348.56;7281095;19;152691;-56
2022/10/29 03:38:39;;;;;;;;;;;;;;;20.92;67.90;101339.00;7282664;19;154980;-57
2022/10/29 03:41:09;;;;;;;;;;;;;;;20.91;68.10;101328.91;7280391;19;152104;-57
2022/10/29 03:43:37;;;;;;;;;;;;;;;20.91;68.29;101321.31;7281172;19;154522;-56
2022/10/29 03:46:03;;;;;;;;;;;;;;;20.92;68.14;101305.31;7288754;19;154157;-56
2022/10/29 03:48:31;;;;;;;;;;;;;;;20.90;68.53;101297.16;7283228;19;152990;-56
2022/10/29 03:50:59;;;;;;;;;;;;;;;20.90;68.41;101291.56;7280509;19;154261;-56
2022/10/29 03:53:26;;;;;;;;;;;;;;;20.89;68.62;101273.06;7283014;19;152071;-56
2022/10/29 03:55:54;;;;;;;;;;;;;;;20.91;68.72;101273.56;7280438;19;154140;-56
2022/10/29 03:58:21;;;;;;;;;;;;;;;20.91;68.71;101281.16;7277442;19;153625;-56
2022/10/29 04:00:58;;;;;;;;;;;;;;;20.92;68.52;101277.22;7280887;19;154124;-56
2022/10/29 04:03:26;;;;;;;;;;;;;;;20.90;68.88;101279.47;7281432;19;153793;-56
2022/10/29 04:05:53;;;;;;;;;;;;;;;20.90;68.78;101274.69;7280163;19;154012;-56
2022/10/29 04:08:20;;;;;;;;;;;;;;;20.91;68.80;101267.94;7290499;19;152284;-56
2022/10/29 04:10:47;;;;;;;;;;;;;;;20.91;68.84;101282.00;7282159;19;154584;-56
2022/10/29 04:13:14;;;;;;;;;;;;;;;20.92;68.63;101274.41;7277509;19;152439;-56
2022/10/29 04:15:41;;;;;;;;;;;;;;;20.92;68.88;101291.25;7282788;19;153684;-56
2022/10/29 04:18:09;;;;;;;;;;;;;;;20.92;68.67;101272.44;7278173;19;152904;-56
2022/10/29 04:20:37;;;;;;;;;;;;;;;20.92;68.66;101277.22;7281122;19;155457;-56
2022/10/29 04:23:23;;;;;;;;;;;;;;;20.90;69.13;101271.88;7280602;19;155382;-56
2022/10/29 04:26:10;;;;;;;;;;;;;;;20.91;68.84;101265.13;7279343;19;153598;-56
2022/10/29 04:28:57;;;;;;;;;;;;;;;20.91;69.24;101272.72;7279331;19;152529;-56
2022/10/29 04:31:24;;;;;;;;;;;;;;;20.91;69.40;101270.75;7288332;19;152765;-56
2022/10/29 04:33:51;;;;;;;;;;;;;;;20.91;69.27;101269.91;7282694;19;151663;-56
2022/10/29 04:36:18;;;;;;;;;;;;;;;20.91;69.73;101262.31;7281733;19;152740;-56
2022/10/29 04:38:45;;;;;;;;;;;;;;;20.91;69.32;101262.31;7281254;19;153374;-56
2022/10/29 04:41:12;;;;;;;;;;;;;;;20.90;69.86;101259.81;7281295;19;151776;-56
2022/10/29 04:43:38;;;;;;;;;;;;;;;20.90;70.03;101254.19;7277452;19;154533;-56
2022/10/29 04:46:05;;;;;;;;;;;;;;;20.91;69.70;101239.84;7279738;19;152328;-56
2022/10/29 04:48:32;;;;;;;;;;;;;;;20.92;69.97;101233.09;7282324;19;152035;-56
2022/10/29 04:51:00;;;;;;;;;;;;;;;20.91;70.34;101211.78;7283048;19;153798;-56
2022/10/29 04:53:42;;;;;;;;;;;;;;;20.92;69.84;101205.03;7288503;19;154149;-56
2022/10/29 04:56:09;;;;;;;;;;;;;;;20.92;69.88;101207.00;7279474;19;152889;-56
2022/10/29 04:58:36;;;;;;;;;;;;;;;20.91;70.05;101211.78;7278530;19;154166;-56
2022/10/29 05:01:03;;;;;;;;;;;;;;;20.92;70.09;101202.22;7280343;19;152040;-56
2022/10/29 05:03:32;;;;;;;;;;;;;;;20.97;70.13;101201.28;7282082;19;152402;-56
2022/10/29 05:06:03;;;;;;;;;;;;;;;20.95;69.22;101203.56;7278452;19;153579;-57
2022/10/29 05:08:31;;;;;;;;;;;;;;;20.91;68.32;101199.69;7280573;19;152002;-58
2022/10/29 05:11:00;;;;;;;;;;;;;;;20.90;69.19;101189.59;7281269;19;154492;-56
2022/10/29 05:13:29;;;;;;;;;;;;;;;20.89;69.36;101183.16;7277391;19;152409;-56
2022/10/29 05:15:56;;;;;;;;;;;;;;;20.90;69.76;101187.63;7288441;19;152599;-57
2022/10/29 05:18:23;;;;;;;;;;;;;;;20.88;69.87;101178.69;7279280;19;154103;-56
2022/10/29 05:20:53;;;;;;;;;;;;;;;20.86;69.72;101156.50;7281088;19;152174;-56
2022/10/29 05:23:22;;;;;;;;;;;;;;;20.89;69.81;101143.00;7277425;19;154708;-57
2022/10/29 05:25:50;;;;;;;;;;;;;;;20.87;70.10;101140.50;7277603;19;152680;-56
2022/10/29 05:28:19;;;;;;;;;;;;;;;20.88;70.17;101138.53;7273789;19;152003;-56
2022/10/29 05:30:47;;;;;;;;;;;;;;;20.88;69.86;101130.09;7286554;19;153566;-56
2022/10/29 05:33:14;;;;;;;;;;;;;;;20.89;70.03;101132.63;7284208;19;153236;-56
2022/10/29 05:35:41;;;;;;;;;;;;;;;20.88;70.30;101127.28;7294282;19;151810;-56
2022/10/29 05:38:09;;;;;;;;;;;;;;;20.88;69.90;101124.50;7283286;19;153598;-56
2022/10/29 05:40:36;;;;;;;;;;;;;;;20.87;70.23;101132.06;7286788;19;152062;-56
2022/10/29 05:43:03;;;;;;;;;;;;;;;20.88;70.14;101125.31;7283758;19;153454;-56
2022/10/29 05:45:30;;;;;;;;;;;;;;;20.88;70.11;101122.50;7286315;19;154369;-56
2022/10/29 05:47:59;;;;;;;;;;;;;;;20.89;70.44;101128.97;7284441;19;153932;-56
2022/10/29 05:50:27;;;;;;;;;;;;;;;20.88;70.47;101127.28;7287390;19;152528;-56
2022/10/29 05:52:54;;;;;;;;;;;;;;;20.87;70.52;101134.88;7283079;19;153250;-56
2022/10/29 05:55:22;;;;;;;;;;;;;;;20.87;70.33;101143.31;7287877;19;152011;-56
2022/10/29 05:57:54;;;;;;;;;;;;;;;20.89;70.32;101134.59;7289961;19;152609;-56
2022/10/29 06:00:20;;;;;;;;;;;;;;;20.88;70.69;101144.16;7284186;19;152440;-56
2022/10/29 06:02:47;;;;;;;;;;;;;;;20.88;70.81;101144.16;7285129;19;153738;-56
2022/10/29 06:05:14;;;;;;;;;;;;;;;20.90;70.37;101141.84;7282335;19;154655;-56
2022/10/29 06:07:41;;;;;;;;;;;;;;;20.89;70.60;101129.81;7285209;19;152972;-56
2022/10/29 06:10:08;;;;;;;;;;;;;;;20.90;70.38;101127.81;7284417;19;154109;-56
2022/10/29 06:12:35;;;;;;;;;;;;;;;20.89;71.13;101120.53;7282419;19;153420;-56
2022/10/29 06:15:03;;;;;;;;;;;;;;;20.89;71.27;101112.13;7284346;19;152283;-56
2022/10/29 06:17:30;;;;;;;;;;;;;;;20.88;70.82;101114.09;7285081;19;152140;-56
2022/10/29 06:19:57;;;;;;;;;;;;;;;20.89;70.72;101106.50;7292684;19;153283;-56
2022/10/29 06:22:23;;;;;;;;;;;;;;;20.89;71.24;101107.34;7284657;19;153313;-56
2022/10/29 06:24:50;;;;;;;;;;;;;;;20.89;71.02;101109.31;7284817;19;153330;-56
2022/10/29 06:27:17;;;;;;;;;;;;;;;20.89;71.25;101112.13;7281960;19;151776;-57
2022/10/29 06:29:43;;;;;;;;;;;;;;;20.89;71.26;101112.13;7285498;19;152719;-56
2022/10/29 06:32:10;;;;;;;;;;;;;;;20.88;71.20;101102.00;7281149;19;152262;-56
2022/10/29 06:34:37;;;;;;;;;;;;;;;20.89;71.35;101106.50;7285960;19;151945;-56
2022/10/29 06:37:04;;;;;;;;;;;;;;;20.89;71.47;101104.53;7286468;19;153028;-56
2022/10/29 06:39:31;;;;;;;;;;;;;;;20.88;71.54;101102.00;7283062;19;153924;-56
2022/10/29 06:41:58;;;;;;;;;;;;;;;20.88;71.37;101108.47;7289214;19;151985;-56
2022/10/29 06:44:24;;;;;;;;;;;;;;;20.89;71.45;101103.69;7283586;19;153942;-56
2022/10/29 06:46:51;;;;;;;;;;;;;;;20.87;71.54;101104.00;7283999;19;152835;-56
2022/10/29 06:49:19;;;;;;;;;;;;;;;20.90;71.58;101102.53;7285754;19;153217;-56
2022/10/29 06:51:46;;;;;;;;;;;;;;;20.89;71.40;101103.69;7284568;19;154779;-56
2022/10/29 06:54:13;;;;;;;;;;;;;;;20.88;71.66;101097.25;7284735;19;151901;-56
2022/10/29 06:56:40;;;;;;;;;;;;;;;20.90;71.10;101111.78;7282699;19;152582;-56
2022/10/29 06:59:07;;;;;;;;;;;;;;;20.90;71.29;101108.16;7282715;19;153813;-56
2022/10/29 07:01:34;;;;;;;;;;;;;;;20.91;71.05;101109.81;7284735;19;152186;-56
2022/10/29 07:04:01;;;;;;;;;;;;;;;20.92;72.30;101092.66;7292472;19;153496;-56
2022/10/29 07:06:30;;;;;;;;;;;;;;;20.97;72.67;101098.19;7283073;19;151993;-56
2022/10/29 07:08:57;;;;;;;;;;;;;;;21.02;73.30;101102.91;7282513;19;153497;-56
2022/10/29 07:11:24;;;;;;;;;;;;;;;21.05;73.25;101082.59;7282622;19;153326;-56
2022/10/29 07:13:51;;;;;;;;;;;;;;;21.10;73.74;101079.72;7283770;19;151793;-56
2022/10/29 07:16:17;;;;;;;;;;;;;;;21.13;73.59;101085.56;7283671;19;154066;-56
2022/10/29 07:18:45;;;;;;;;;;;;;;;21.16;73.33;101061.66;7283426;19;152625;-56
2022/10/29 07:21:12;;;;;;;;;;;;;;;21.21;73.41;101067.19;7284143;19;152335;-56
2022/10/29 07:23:40;;;;;;;;;;;;;;;21.23;73.09;101074.13;7282978;19;153398;-56
2022/10/29 07:26:06;;;;;;;;;;;;;;;21.27;72.92;101058.31;7290753;19;153212;-56
2022/10/29 07:28:33;;;;;;;;;;;;;;;21.30;72.90;101051.25;7279127;19;153820;-56
2022/10/29 07:31:00;;;;;;;;;;;;;;;21.34;72.55;101048.66;7281068;19;153733;-56
2022/10/29 07:33:29;;;;;;;;;;;;;;;21.36;72.68;101052.81;7281406;19;151887;-57
2022/10/29 07:35:57;;;;;;;;;;;;;;;21.40;72.48;101059.47;7281911;19;153906;-56
2022/10/29 07:38:24;;;;;;;;;;;;;;;21.42;72.40;101064.78;7280396;19;154050;-57
2022/10/29 07:40:52;;;;;;;;;;;;;;;21.44;72.55;101074.56;7283962;19;152184;-57
2022/10/29 07:43:19;;;;;;;;;;;;;;;21.47;72.48;101079.59;7278814;19;153311;-57
2022/10/29 07:45:50;;;;;;;;;;;;;;;21.49;72.39;101090.50;7287569;19;154064;-58
2022/10/29 07:48:18;;;;;;;;;;;;;;;21.51;72.10;101091.03;7281234;19;153653;-57
2022/10/29 07:50:46;;;;;;;;;;;;;;;21.53;71.74;101092.38;7280211;19;154199;-57
2022/10/29 07:53:13;;;;;;;;;;;;;;;21.55;71.75;101086.44;7282206;19;152358;-57
2022/10/29 07:55:40;;;;;;;;;;;;;;;21.56;71.71;101074.91;7283305;19;154038;-57
2022/10/29 07:58:09;;;;;;;;;;;;;;;21.59;71.65;101085.50;7277217;19;152638;-57
2022/10/29 08:00:37;;;;;;;;;;;;;;;21.60;71.77;101097.59;7282069;19;151949;-56
2022/10/29 08:03:05;;;;;;;;;;;;;;;21.61;71.89;101108.53;7283437;19;154168;-56
2022/10/29 08:05:31;;;;;;;;;;;;;;;21.62;72.14;101103.75;7281049;19;152644;-56
2022/10/29 08:07:58;;;;;;;;;;;;;;;21.63;71.83;101094.97;7288086;19;152235;-56
2022/10/29 08:10:26;;;;;;;;;;;;;;;21.64;71.68;101098.63;7280105;19;153058;-56
2022/10/29 08:12:54;;;;;;;;;;;;;;;21.65;71.48;101089.06;7278059;19;152118;-56
2022/10/29 08:15:23;;;;;;;;;;;;;;;21.67;71.48;101092.38;7282368;19;152074;-57
2022/10/29 08:17:50;;;;;;;;;;;;;;;21.67;71.71;101083.94;7278184;19;154283;-57
2022/10/29 08:20:17;;;;;;;;;;;;;;;21.67;71.74;101095.19;7282159;19;152772;-57
2022/10/29 08:22:44;;;;;;;;;;;;;;;21.66;71.92;101096.34;7281781;19;152450;-57
2022/10/29 08:25:11;;;;;;;;;;;;;;;21.67;72.04;101093.22;7278943;19;152599;-57
2022/10/29 08:27:38;;;;;;;;;;;;;;;21.66;72.38;101102.81;7278070;19;152311;-57
2022/10/29 08:30:06;;;;;;;;;;;;;;;21.65;72.41;101112.41;7286153;19;152229;-56
2022/10/29 08:32:34;;;;;;;;;;;;;;;21.65;72.41;101108.75;7281958;19;152520;-58
2022/10/29 08:35:01;;;;;;;;;;;;;;;21.64;72.64;101096.66;7282555;19;152363;-57
2022/10/29 08:37:28;;;;;;;;;;;;;;;21.64;72.24;101091.03;7280833;19;154011;-57
2022/10/29 08:39:55;;;;;;;;;;;;;;;21.65;72.69;101101.16;7281433;19;152219;-57
2022/10/29 08:42:31;;;;;;;;;;;;;;;21.65;72.47;101094.69;7280607;19;152677;-57
2022/10/29 08:45:00;;;;;;;;;;;;;;;21.67;72.17;101081.13;7280564;19;154334;-57
2022/10/29 08:47:27;;;;;;;;;;;;;;;21.65;72.20;101081.47;7278983;19;152123;-57
2022/10/29 08:49:54;;;;;;;;;;;;;;;21.66;72.23;101087.91;7281397;19;153392;-57
2022/10/29 08:52:25;;;;;;;;;;;;;;;21.66;72.51;101097.19;7288218;19;153841;-56
2022/10/29 08:55:02;;;;;;;;;;;;;;;21.68;71.84;101096.84;7282204;19;153453;-56
2022/10/29 08:57:32;;;;;;;;;;;;;;;21.67;72.28;101087.59;7277999;19;154473;-57
2022/10/29 08:59:59;;;;;;;;;;;;;;;21.69;71.95;101084.47;7279250;19;152196;-57
2022/10/29 09:02:26;;;;;;;;;;;;;;;21.70;71.71;101095.41;7281550;19;153070;-56
2022/10/29 09:04:52;;;;;;;;;;;;;;;21.71;71.70;101090.63;7278675;19;152854;-57
2022/10/29 09:07:20;;;;;;;;;;;;;;;21.71;71.47;101091.44;7278785;19;152183;-56
2022/10/29 09:09:57;;;;;;;;;;;;;;;21.73;71.67;101091.97;7282156;19;153921;-56
2022/10/29 09:12:34;;;;;;;;;;;;;;;21.73;71.79;101079.88;7278271;19;153651;-56
2022/10/29 09:15:14;;;;;;;;;;;;;;;21.73;71.29;101077.91;7287669;19;152199;-57
2022/10/29 09:17:49;;;;;;;;;;;;;;;21.74;71.02;101075.94;7278898;19;153753;-56
2022/10/29 09:20:25;;;;;;;;;;;;;;;21.76;71.20;101082.06;7281036;19;151940;-57
2022/10/29 09:22:55;;;;;;;;;;;;;;;21.75;71.66;101069.16;7280754;19;153479;-56
2022/10/29 09:25:26;;;;;;;;;;;;;;;21.76;71.10;101076.44;7279694;19;154248;-56
2022/10/29 09:28:02;;;;;;;;;;;;;;;21.76;71.61;101075.63;7274804;19;152544;-57
2022/10/29 09:30:30;;;;;;;;;;;;;;;21.77;71.58;101066.84;7278375;19;152680;-57
2022/10/29 09:33:00;;;;;;;;;;;;;;;21.77;71.61;101071.66;7277798;19;154522;-57
2022/10/29 09:35:37;;;;;;;;;;;;;;;21.77;71.36;101058.41;7282195;19;152845;-57
2022/10/29 09:38:13;;;;;;;;;;;;;;;21.77;71.47;101057.59;7286245;19;152663;-56
2022/10/29 09:40:42;;;;;;;;;;;;;;;21.77;71.36;101071.66;7279213;19;152360;-57
2022/10/29 09:43:15;;;;;;;;;;;;;;;21.78;71.07;101078.94;7273979;19;154006;-56
2022/10/29 09:45:47;;;;;;;;;;;;;;;21.77;71.55;101080.91;7279290;19;153243;-57
2022/10/29 09:48:19;;;;;;;;;;;;;;;21.79;71.20;101089.06;7278900;19;152136;-56
2022/10/29 09:50:47;;;;;;;;;;;;;;;21.79;71.29;101080.63;7280448;19;154217;-56
2022/10/29 09:53:15;;;;;;;;;;;;;;;21.77;71.88;101080.91;7279004;19;152719;-56
2022/10/29 09:55:43;;;;;;;;;;;;;;;21.77;72.04;101088.53;7278660;19;154932;-56
2022/10/29 09:58:17;;;;;;;;;;;;;;;21.78;72.24;101078.94;7283011;19;152813;-57
2022/10/29 10:00:44;;;;;;;;;;;;;;;21.84;72.07;101086.13;7279329;19;152900;-57
2022/10/29 10:03:15;;;;;;;;;;;;;;;21.81;72.33;101078.31;7279622;19;152461;-56
2022/10/29 10:05:51;;;;;;;;;;;;;;;21.86;72.39;101086.63;7275204;19;153830;-56
2022/10/29 10:08:18;;;;;;;;;;;;;;;21.80;72.26;101090.72;7275409;19;153008;-57
2022/10/29 10:10:50;;;;;;;;;;;;;;;21.79;73.01;101098.34;7279534;19;153719;-57
2022/10/29 10:13:18;;;;;;;;;;;;;;;21.78;72.92;101076.97;7271756;19;153516;-56
2022/10/29 10:15:52;;;;;;;;;;;;;;;21.74;73.23;101088.03;7278764;19;152758;-57
2022/10/29 10:18:21;;;;;;;;;;;;;;;21.75;73.41;101088.84;7282544;19;152958;-61
2022/10/29 10:20:58;;;;;;;;;;;;;;;21.68;74.12;101088.44;7292185;19;152499;-61
2022/10/29 10:23:25;;;;;;;;;;;;;;;21.66;74.54;101091.56;7282769;19;153008;-61
2022/10/29 10:25:54;;;;;;;;;;;;;;;21.65;74.65;101092.72;7280275;19;153300;-61
2022/10/29 10:28:30;;;;;;;;;;;;;;;21.66;74.01;101094.38;7281901;19;152160;-61
2022/10/29 10:31:07;;;;;;;;;;;;;;;21.67;73.78;101089.56;7283788;19;152391;-60
2022/10/29 10:33:35;;;;;;;;;;;;;;;21.68;73.60;101094.88;7282144;19;152747;-61
2022/10/29 10:36:04;;;;;;;;;;;;;;;21.67;73.77;101087.59;7285694;19;152247;-60
2022/10/29 10:38:41;;;;;;;;;;;;;;;21.65;73.42;101098.34;7283847;19;153533;-60
2022/10/29 10:41:10;;;;;;;;;;;;;;;21.65;73.66;101098.34;7282742;19;153857;-61
2022/10/29 10:43:41;;;;;;;;;;;;;;;21.61;73.59;101102.91;7284749;19;153552;-60
2022/10/29 10:46:13;;;;;;;;;;;;;;;21.59;73.71;101090.31;7282854;19;154080;-60
2022/10/29 10:48:40;;;;;;;;;;;;;;;21.60;73.21;101092.81;7283205;19;152347;-60
2022/10/29 10:51:11;;;;;;;;;;;;;;;21.61;73.52;101090.84;7279603;19;152235;-61
2022/10/29 10:53:40;;;;;;;;;;;;;;;21.58;74.00;101092.28;7283903;19;154290;-61
2022/10/29 10:56:15;;;;;;;;;;;;;;;21.58;73.77;101091.44;7283434;19;152195;-60
2022/10/29 10:58:46;;;;;;;;;;;;;;;21.56;74.19;101100.22;7279308;19;153477;-61
2022/10/29 11:01:18;;;;;;;;;;;;;;;21.57;73.80;101098.22;7281293;19;155309;-61
2022/10/29 11:03:47;;;;;;;;;;;;;;;21.58;73.82;101097.91;7285210;19;152408;-61
2022/10/29 11:06:19;;;;;;;;;;;;;;;21.57;74.15;101106.66;7289625;19;153950;-61
2022/10/29 11:08:54;;;;;;;;;;;;;;;21.57;73.90;101109.47;7282862;19;153815;-61
2022/10/29 11:11:24;;;;;;;;;;;;;;;21.56;73.90;101102.19;7283754;19;152865;-61
2022/10/29 11:13:53;;;;;;;;;;;;;;;21.55;74.10;101097.69;7278287;19;155949;-61
2022/10/29 11:16:30;;;;;;;;;;;;;;;21.56;73.69;101088.97;7283371;19;152773;-61
2022/10/29 11:19:03;;;;;;;;;;;;;;;21.50;73.70;101093.00;7282741;19;153819;-61
2022/10/29 11:21:39;;;;;;;;;;;;;;;21.50;73.86;101083.75;7281544;19;153520;-62
2022/10/29 11:24:06;;;;;;;;;;;;;;;21.50;73.55;101076.13;7284218;19;152460;-61
2022/10/29 11:26:34;;;;;;;;;;;;;;;21.51;73.94;101071.34;7280934;19;153626;-61
2022/10/29 11:29:08;;;;;;;;;;;;;;;21.51;74.09;101072.19;7287355;19;153514;-61
2022/10/29 11:31:39;;;;;;;;;;;;;;;21.48;73.58;101078.44;7283073;19;152161;-61
2022/10/29 11:34:08;;;;;;;;;;;;;;;21.46;73.63;101060.22;7279226;19;154536;-61
2022/10/29 11:36:39;;;;;;;;;;;;;;;21.47;74.16;101056.25;7280790;19;152342;-61
2022/10/29 11:39:08;;;;;;;;;;;;;;;21.47;73.09;101031.78;7282458;19;153464;-61
2022/10/29 11:41:46;;;;;;;;;;;;;;;21.49;73.63;101037.91;7280286;19;152744;-61
2022/10/29 11:44:16;;;;;;;;;;;;;;;21.50;73.61;101033.13;7282209;19;152357;-61
2022/10/29 11:46:53;;;;;;;;;;;;;;;21.52;73.66;101028.03;7281023;19;154424;-61
2022/10/29 11:49:33;;;;;;;;;;;;;;;21.51;73.47;101034.81;7279702;19;152613;-62
2022/10/29 11:52:01;;;;;;;;;;;;;;;21.50;72.86;101021.88;7289817;19;152016;-61
2022/10/29 11:54:39;;;;;;;;;;;;;;;21.50;72.56;101028.34;7277293;19;154873;-61
2022/10/29 11:57:16;;;;;;;;;;;;;;;21.53;73.18;101015.66;7280087;19;152076;-61
2022/10/29 11:59:47;;;;;;;;;;;;;;;21.52;73.06;101014.81;7281801;19;152069;-61
2022/10/29 12:02:15;;;;;;;;;;;;;;;21.53;73.22;101008.03;7281630;19;153529;-61
2022/10/29 12:04:47;;;;;;;;;;;;;;;21.53;73.35;101010.03;7280033;19;154140;-61
2022/10/29 12:07:17;;;;;;;;;;;;;;;21.61;72.66;101004.50;7277535;19;153485;-62
2022/10/29 12:09:47;;;;;;;;;;;;;;;21.63;72.61;101002.19;7279901;19;153251;-61
2022/10/29 12:12:17;;;;;;;;;;;;;;;21.67;72.64;101006.03;7287698;19;152180;-61
2022/10/29 12:14:47;;;;;;;;;;;;;;;21.67;72.30;101008.00;7279540;19;153164;-61
2022/10/29 12:17:18;;;;;;;;;;;;;;;21.68;72.27;101012.50;7281221;19;152945;-61
2022/10/29 12:19:53;;;;;;;;;;;;;;;21.68;72.73;101007.72;7281552;19;154279;-61
2022/10/29 12:22:23;;;;;;;;;;;;;;;21.68;72.45;100999.28;7281216;19;154347;-61
2022/10/29 12:24:52;;;;;;;;;;;;;;;21.69;72.60;101006.56;7279154;19;152251;-60
2022/10/29 12:27:20;;;;;;;;;;;;;;;21.70;72.33;100998.97;7277504;19;152375;-60
2022/10/29 12:29:50;;;;;;;;;;;;;;;21.70;72.61;100999.81;7277617;19;153786;-60
2022/10/29 12:32:18;;;;;;;;;;;;;;;21.74;72.45;100994.38;7278194;19;152404;-60
2022/10/29 12:34:48;;;;;;;;;;;;;;;21.72;72.53;100994.69;7285827;19;153633;-61
2022/10/29 12:37:18;;;;;;;;;;;;;;;21.73;72.80;100990.72;7280676;19;152321;-60
2022/10/29 12:39:48;;;;;;;;;;;;;;;21.89;74.55;100981.94;7279613;19;152149;-59
2022/10/29 12:42:18;;;;;;;;;;;;;;;22.06;74.12;100984.94;7279492;19;153724;-63
2022/10/29 12:44:53;;;;;;;;;;;;;;;22.08;73.52;100991.06;7279032;19;152170;-58